Aeroporto :
LOGIN :

Iscrizione | Disclaimer

   EN    FR    IT 

 










Sommario :    VFR   VFR Marginale   IFR   IFR Intensivo   IFR Molto Intensivo
Visibilità : 
Base nubi : 
>= 8 km
>= 3000ft
5 / 8 km
1000 / 3000 ft
1500m / 5 km
500 / 1000 ft
800 / 1500m
200 / 500 ft
< 800m
< 200 ft
Simboli :   Temporali  Nebbia  Neve Forte  Precipitazioni Forti  Vento > 20 kt
SIGMETs :   Varie  Temporali  Ghiacco  Turbolenza  Onda orograficha  Ceneri Vulcaniche






- Altitudine del aeroporto : 154 ft
- Codice IATA : PKV


ULOO - Pskov

ULTIMO METAR :
  • 291300Z 20003MPS 9999 SCT026 00/M04 Q1004 R19/090055 NOSIG RMK QFE749

METARs OBSOLETI :
  • 291230Z 20003MPS 9999 SCT046 01/M05 Q1004 R19/090055 NOSIG RMK QFE749
  • 291200Z 21003MPS 9999 SCT036 M00/M05 Q1004 R19/090055 NOSIG RMK QFE749
  • 291130Z 22003MPS 190V260 9999 SCT038 01/M05 Q1004 R19/090055 NOSIG RMK QFE749
  • 291100Z 24003MPS 210V270 CAVOK M01/M06 Q1004 R19/090055 NOSIG RMK QFE749
  • 291030Z 24003MPS 9999 SCT032 M01/M06 Q1004 R19/090055 NOSIG RMK QFE749

TAF TAF ULOO
Valido dal 29 a 12 ore il 29 a 21 ore UTC


291055Z 2912/2921 24003MPS 6000 BKN015
BECMG 2915/2918 21003G08MPS BKN011



MetMap, La meteo Aeronautica in un colpo d'occhio ! - Copyright ORBIFLY Dicembre 2007 - Disclaimer

ORBIFLY MET'MAP TEAM :

Programmazione e sviluppo : Alexandra Zaïnal
Concezione : Baudouin d'Aumeries
Aiuto per la programmazione : Marc-Olivier Méhu
Supporto tecnico e logistico : Manuel Goepfert
Aiuto per la traduzione : Arnaldo La Scala

Contatto : metmap@orbifly.com




FONTI E CREDITI :

   NOAA